Time;durP1;ratioP1;P1;durP2;ratioP2;P2;SDS_P1;SDS_P2;PMS_P1;PMS_P2;Temp;Humidity;BMP_temperature;BMP_pressure;BME280_temperature;BME280_humidity;BME280_pressure;Samples;Min_cycle;Max_cycle;Signal;HPM_P1;HPM_P2
2023/08/29 00:00:51;;;;;;;;;5.00;4.00;;;;;24.42;48.91;100349.08;110270;1262;20276;-38
2023/08/29 00:03:28;;;;;;;;;5.00;5.00;;;;;24.39;48.96;100411.00;110278;1262;21037;-37
2023/08/29 00:05:55;;;;;;;;;5.00;5.00;;;;;24.38;49.05;100457.11;110310;1262;19636;-37
2023/08/29 00:08:22;;;;;;;;;5.00;5.00;;;;;24.36;48.97;100396.27;110305;1262;19984;-36
2023/08/29 00:10:50;;;;;;;;;5.00;5.00;;;;;24.36;49.10;100375.13;110295;1262;19254;-37
2023/08/29 00:13:17;;;;;;;;;5.00;5.00;;;;;24.41;49.01;100386.64;110298;1262;19558;-37
2023/08/29 00:15:45;;;;;;;;;5.00;5.00;;;;;24.37;49.15;100347.63;110274;1255;23052;-36
2023/08/29 00:18:12;;;;;;;;;3.00;3.00;;;;;24.43;49.14;100309.79;110270;1262;20145;-38
2023/08/29 00:20:39;;;;;;;;;5.00;5.00;;;;;24.43;49.13;100309.89;110322;1262;18651;-36
2023/08/29 00:23:09;;;;;;;;;3.00;3.00;;;;;24.39;49.13;100314.19;110294;1248;22180;-37
2023/08/29 00:25:36;;;;;;;;;6.00;5.00;;;;;24.39;49.24;100333.41;110284;1262;19695;-37
2023/08/29 00:28:04;;;;;;;;;3.00;3.00;;;;;24.35;49.36;100293.14;110287;1262;19703;-37
2023/08/29 00:30:31;;;;;;;;;5.00;5.00;;;;;24.36;49.08;100240.98;110294;1262;18674;-39
2023/08/29 00:32:58;;;;;;;;;3.00;3.00;;;;;24.35;49.16;100211.57;110281;1262;21039;-37
2023/08/29 00:35:26;;;;;;;;;5.00;5.00;;;;;24.34;49.26;100231.14;110302;1246;18373;-37
2023/08/29 00:37:53;;;;;;;;;2.67;2.67;;;;;24.34;49.16;100253.27;110287;1262;20437;-37
2023/08/29 00:40:21;;;;;;;;;3.00;3.00;;;;;24.35;48.92;100269.48;110281;1248;21034;-37
2023/08/29 00:42:48;;;;;;;;;3.00;3.00;;;;;24.35;48.90;100262.75;110287;1262;18621;-36
2023/08/29 00:45:16;;;;;;;;;3.00;3.00;;;;;24.35;48.98;100248.57;110280;1262;18994;-36
2023/08/29 00:47:43;;;;;;;;;2.00;2.00;;;;;24.36;48.83;100257.92;110307;1262;20685;-37
2023/08/29 00:50:11;;;;;;;;;3.00;2.00;;;;;24.35;48.88;100271.09;110294;1262;19930;-38
2023/08/29 00:52:38;;;;;;;;;3.00;3.00;;;;;24.37;48.69;100278.42;110250;1250;18651;-38
2023/08/29 00:55:05;;;;;;;;;3.00;3.00;;;;;24.34;48.92;100245.58;110217;1256;21142;-39
2023/08/29 00:57:33;;;;;;;;;3.00;3.00;;;;;24.34;48.73;100184.60;110271;1262;22626;-36
2023/08/29 01:00:00;;;;;;;;;3.67;3.00;;;;;24.33;48.69;100140.00;110306;1262;19572;-37
2023/08/29 01:02:28;;;;;;;;;3.67;3.00;;;;;24.34;48.85;100152.95;110319;1262;20712;-37
2023/08/29 01:04:55;;;;;;;;;3.00;3.00;;;;;24.34;48.82;100194.55;110310;1262;19953;-36
2023/08/29 01:07:22;;;;;;;;;5.00;5.00;;;;;24.36;48.58;100259.98;110277;1262;20140;-37
2023/08/29 01:09:50;;;;;;;;;3.00;3.00;;;;;24.35;48.59;100362.17;110288;1262;20691;-37
2023/08/29 01:12:17;;;;;;;;;2.00;2.00;;;;;24.35;48.70;100445.77;110300;1262;18425;-37
2023/08/29 01:14:45;;;;;;;;;3.00;3.00;;;;;24.34;48.75;100417.70;110289;1262;20186;-37
2023/08/29 01:17:12;;;;;;;;;3.00;2.00;;;;;24.33;48.49;100366.23;109936;1262;450518;-38
2023/08/29 01:19:40;;;;;;;;;2.00;2.00;;;;;24.32;48.46;100330.60;110292;1248;18583;-38
2023/08/29 01:22:07;;;;;;;;;3.00;3.00;;;;;24.33;48.29;100311.25;110281;1262;22326;-37
2023/08/29 01:24:35;;;;;;;;;3.00;3.00;;;;;24.34;48.48;100357.33;110288;1262;22038;-37
2023/08/29 01:27:02;;;;;;;;;2.00;2.00;;;;;24.35;48.27;100371.27;110293;1247;18504;-38
2023/08/29 01:29:30;;;;;;;;;3.00;3.00;;;;;24.33;48.46;100343.17;110241;1247;20000;-38
2023/08/29 01:31:57;;;;;;;;;3.00;3.00;;;;;24.32;48.46;100282.58;110210;1262;19867;-38
2023/08/29 01:34:24;;;;;;;;;2.00;2.00;;;;;24.34;48.33;100231.95;110300;1262;19581;-37
2023/08/29 01:36:52;;;;;;;;;3.00;3.00;;;;;24.33;48.52;100215.45;110279;1262;20022;-37
2023/08/29 01:39:19;;;;;;;;;2.00;2.00;;;;;24.34;48.30;100236.39;110297;1248;21352;-38
2023/08/29 01:41:47;;;;;;;;;3.00;2.00;;;;;24.35;48.42;100248.90;110285;1262;18706;-38
2023/08/29 01:44:14;;;;;;;;;2.50;2.50;;;;;24.34;48.54;100278.97;110283;1262;20200;-38
2023/08/29 01:46:41;;;;;;;;;2.00;2.00;;;;;24.34;48.45;100304.21;110162;1262;22217;-38
2023/08/29 01:49:09;;;;;;;;;3.00;3.00;;;;;24.36;48.25;100319.45;110302;1262;18321;-38
2023/08/29 01:51:36;;;;;;;;;3.00;3.00;;;;;24.33;48.37;100307.45;110318;1262;19922;-38
2023/08/29 01:54:03;;;;;;;;;2.50;2.50;;;;;24.31;48.25;100294.27;110293;1262;21957;-38
2023/08/29 01:56:31;;;;;;;;;2.00;2.00;;;;;24.33;48.35;100261.11;110278;1255;22436;-38
2023/08/29 01:58:58;;;;;;;;;2.00;2.00;;;;;24.33;48.29;100228.91;110297;1262;19856;-38
2023/08/29 02:01:26;;;;;;;;;2.00;2.00;;;;;24.32;48.38;100218.63;110292;1262;20680;-37
2023/08/29 02:03:53;;;;;;;;;2.00;2.00;;;;;24.32;48.34;100211.80;110292;1247;19873;-38
2023/08/29 02:06:20;;;;;;;;;5.00;3.00;;;;;24.32;48.24;100184.64;110275;1262;20197;-38
2023/08/29 02:08:48;;;;;;;;;4.33;4.33;;;;;24.34;48.17;100155.42;110297;1262;20716;-39
2023/08/29 02:11:15;;;;;;;;;3.00;3.00;;;;;24.33;48.19;100184.46;110275;1262;19592;-39
2023/08/29 02:13:42;;;;;;;;;2.00;2.00;;;;;24.33;48.26;100204.81;110284;1262;18796;-38
2023/08/29 02:16:10;;;;;;;;;2.00;2.00;;;;;24.34;48.20;100187.56;110294;1262;19710;-39
2023/08/29 02:18:37;;;;;;;;;2.00;2.00;;;;;24.31;48.24;100119.36;110295;1248;18547;-39
2023/08/29 02:21:05;;;;;;;;;2.00;2.00;;;;;24.30;48.15;100092.90;110159;1262;20209;-39
2023/08/29 02:23:32;;;;;;;;;3.00;3.00;;;;;24.34;48.00;100150.11;110253;1246;20901;-36
2023/08/29 02:25:59;;;;;;;;;2.50;2.50;;;;;24.35;47.99;100220.04;110297;1262;19713;-38
2023/08/29 02:28:27;;;;;;;;;3.00;2.00;;;;;24.34;47.92;100195.11;110298;1262;19950;-38
2023/08/29 02:30:54;;;;;;;;;2.00;2.00;;;;;24.32;47.95;100124.25;110294;1255;19351;-38
2023/08/29 02:33:22;;;;;;;;;2.00;2.00;;;;;24.30;47.97;100085.71;110293;1246;19637;-38
2023/08/29 02:35:49;;;;;;;;;5.00;2.67;;;;;24.34;47.83;100109.70;110305;1247;20342;-38
2023/08/29 02:38:16;;;;;;;;;2.50;2.00;;;;;24.33;47.70;100119.48;110290;1248;20650;-38
2023/08/29 02:40:44;;;;;;;;;3.00;2.00;;;;;24.32;47.69;100116.48;110306;1262;18341;-38
2023/08/29 02:43:11;;;;;;;;;2.00;2.00;;;;;24.31;47.77;100103.59;110283;1262;20017;-37
2023/08/29 02:45:39;;;;;;;;;3.00;2.50;;;;;24.30;47.66;100077.79;110300;1247;21020;-37
2023/08/29 02:48:06;;;;;;;;;3.00;3.00;;;;;24.30;47.68;100069.35;110262;1248;22147;-38
2023/08/29 02:50:33;;;;;;;;;2.00;2.00;;;;;24.31;47.65;100080.22;110275;1262;20159;-37
2023/08/29 02:53:01;;;;;;;;;2.00;2.00;;;;;24.31;47.64;100074.48;110287;1262;20976;-38
2023/08/29 02:55:28;;;;;;;;;3.00;3.00;;;;;24.31;47.59;100062.48;110293;1248;19598;-38
2023/08/29 02:57:56;;;;;;;;;2.00;2.00;;;;;24.31;47.52;100084.53;110283;1255;20135;-38
2023/08/29 03:00:24;;;;;;;;;3.00;2.00;;;;;24.31;47.63;100182.69;110310;1262;19723;-38
2023/08/29 03:02:51;;;;;;;;;2.00;2.00;;;;;24.33;47.55;100321.98;110300;1262;18346;-38
2023/08/29 03:05:18;;;;;;;;;3.00;2.50;;;;;24.34;47.65;100413.48;110278;1262;19899;-38
2023/08/29 03:07:46;;;;;;;;;2.00;2.00;;;;;24.32;47.51;100420.98;110287;1262;20670;-37
2023/08/29 03:10:13;;;;;;;;;3.00;3.00;;;;;24.29;47.65;100346.92;110290;1262;22274;-37
2023/08/29 03:12:41;;;;;;;;;2.00;2.00;;;;;24.27;47.66;100255.09;110286;1262;21718;-37
2023/08/29 03:15:09;;;;;;;;;2.00;2.00;;;;;24.27;47.64;100154.10;110275;1248;19875;-37
2023/08/29 03:17:36;;;;;;;;;2.00;2.00;;;;;24.24;47.81;100106.02;110299;1262;19596;-37
2023/08/29 03:20:05;;;;;;;;;3.00;3.00;;;;;24.25;47.93;100121.62;110215;1262;19987;-37
2023/08/29 03:22:32;;;;;;;;;2.00;2.00;;;;;24.28;47.81;100146.48;110233;1262;20783;-37
2023/08/29 03:25:00;;;;;;;;;2.00;2.00;;;;;24.28;47.71;100168.02;110293;1262;18632;-37
2023/08/29 03:27:27;;;;;;;;;2.00;2.00;;;;;24.28;47.73;100175.98;110289;1262;19952;-38
2023/08/29 03:29:55;;;;;;;;;2.00;2.00;;;;;24.27;47.70;100162.20;110258;1262;19790;-37
2023/08/29 03:32:22;;;;;;;;;2.00;2.00;;;;;24.27;47.79;100143.31;110281;1262;19659;-37
2023/08/29 03:34:50;;;;;;;;;3.00;3.00;;;;;24.30;47.84;100128.64;110306;1262;21242;-38
2023/08/29 03:37:18;;;;;;;;;3.00;3.00;;;;;24.30;47.61;100136.56;110278;1262;20698;-37
2023/08/29 03:39:45;;;;;;;;;5.50;3.00;;;;;24.31;47.58;100149.25;110292;1262;19910;-38
2023/08/29 03:42:13;;;;;;;;;3.00;2.00;;;;;24.29;47.84;100140.03;110303;1247;22615;-37
2023/08/29 03:44:40;;;;;;;;;2.00;2.00;;;;;24.28;47.78;100134.58;110265;1247;20618;-37
2023/08/29 03:47:07;;;;;;;;;2.00;2.00;;;;;24.29;47.77;100130.30;110316;1262;18551;-37
2023/08/29 03:49:35;;;;;;;;;2.00;2.00;;;;;24.29;47.58;100134.23;110304;1262;22278;-37
2023/08/29 03:52:03;;;;;;;;;4.50;4.00;;;;;24.29;47.80;100132.49;110298;1262;20588;-37
2023/08/29 03:54:30;;;;;;;;;3.00;3.00;;;;;24.29;47.76;100124.05;110289;1262;19573;-36
2023/08/29 03:56:58;;;;;;;;;3.00;3.00;;;;;24.30;47.69;100114.41;110218;1262;20086;-37
2023/08/29 03:59:25;;;;;;;;;2.00;2.00;;;;;24.32;47.65;100101.38;110130;1262;21279;-37
2023/08/29 04:01:52;;;;;;;;;2.00;2.00;;;;;24.29;47.92;100081.30;110241;1262;22172;-38
2023/08/29 04:04:20;;;;;;;;;3.00;3.00;;;;;24.31;47.62;100072.61;110284;1248;21586;-36
2023/08/29 04:06:47;;;;;;;;;2.00;2.00;;;;;24.30;47.80;100070.65;110299;1262;22058;-36
2023/08/29 04:09:15;;;;;;;;;2.00;2.00;;;;;24.30;47.83;100065.04;110250;1262;22752;-36
2023/08/29 04:11:42;;;;;;;;;2.00;2.00;;;;;24.29;47.93;100063.84;110291;1262;19982;-37
2023/08/29 04:14:09;;;;;;;;;2.00;2.00;;;;;24.31;47.76;100054.39;110315;1262;19310;-37
2023/08/29 04:16:37;;;;;;;;;5.00;3.00;;;;;24.32;47.74;100052.66;110315;1262;19814;-37
2023/08/29 04:19:04;;;;;;;;;2.00;2.00;;;;;24.31;47.84;100057.45;110285;1262;19916;-37
2023/08/29 04:21:32;;;;;;;;;2.50;2.00;;;;;24.30;47.92;100059.54;110282;1262;20615;-37
2023/08/29 04:23:59;;;;;;;;;2.00;2.00;;;;;24.28;47.83;100048.09;110285;1255;18700;-37
2023/08/29 04:26:27;;;;;;;;;2.00;2.00;;;;;24.29;47.87;100012.45;110274;1248;20780;-37
2023/08/29 04:28:54;;;;;;;;;3.00;2.00;;;;;24.29;47.95;99969.46;110272;1255;19438;-37
2023/08/29 04:31:21;;;;;;;;;2.00;2.00;;;;;24.27;47.92;99928.91;110288;1262;19688;-38
2023/08/29 04:33:49;;;;;;;;;2.00;2.00;;;;;24.27;47.95;99910.95;110295;1262;21170;-37
2023/08/29 04:36:17;;;;;;;;;2.67;2.67;;;;;24.29;47.87;99925.52;110248;1247;20683;-37
2023/08/29 04:38:47;;;;;;;;;2.00;2.00;;;;;24.28;48.09;99950.14;110303;1262;19486;-37
2023/08/29 04:41:15;;;;;;;;;3.00;3.00;;;;;24.26;47.86;99950.15;110254;1262;21143;-39
2023/08/29 04:43:42;;;;;;;;;3.00;3.00;;;;;24.27;47.95;99946.73;110122;1262;20841;-37
2023/08/29 04:46:09;;;;;;;;;3.00;3.00;;;;;24.29;47.90;99945.88;110267;1247;23409;-37
2023/08/29 04:48:37;;;;;;;;;3.00;2.00;;;;;24.30;47.79;99936.44;110307;1262;18644;-37
2023/08/29 04:51:04;;;;;;;;;6.00;5.00;;;;;24.27;47.83;99916.32;110290;1262;21940;-37
2023/08/29 04:53:32;;;;;;;;;2.00;2.00;;;;;24.25;47.95;99912.90;110295;1262;18375;-37
2023/08/29 04:56:00;;;;;;;;;3.00;3.00;;;;;24.28;48.06;99926.15;110269;1248;18735;-38
2023/08/29 04:58:27;;;;;;;;;2.50;2.50;;;;;24.22;48.03;99938.86;110270;1262;19480;-37
2023/08/29 05:00:55;;;;;;;;;5.00;4.00;;;;;24.22;48.09;99949.98;110295;1262;19576;-36
2023/08/29 05:03:22;;;;;;;;;3.00;3.00;;;;;24.22;48.00;99946.63;110319;1256;18817;-36
2023/08/29 05:05:51;;;;;;;;;5.50;5.50;;;;;24.31;47.97;99949.71;110287;1248;23258;-37
2023/08/29 05:08:18;;;;;;;;;5.00;5.00;;;;;24.32;48.08;99969.29;110314;1262;18372;-37
2023/08/29 05:10:46;;;;;;;;;6.00;5.00;;;;;24.31;48.14;99977.23;110241;1262;20194;-36
2023/08/29 05:13:13;;;;;;;;;7.00;5.00;;;;;24.36;48.35;99966.29;110230;1256;19554;-37
2023/08/29 05:15:40;;;;;;;;;3.00;3.00;;;;;24.39;48.47;99971.91;110211;1262;19763;-36
2023/08/29 05:18:08;;;;;;;;;299.00;208.00;;;;;24.40;48.73;99975.52;110281;1262;22305;-36
2023/08/29 05:20:35;;;;;;;;;290.00;210.00;;;;;24.45;48.76;99975.36;110293;1262;22018;-36
2023/08/29 05:23:02;;;;;;;;;1201.00;1094.00;;;;;24.48;49.12;99978.95;110299;1262;20266;-36
2023/08/29 05:25:30;;;;;;;;;1988.50;1914.00;;;;;24.53;49.03;99966.80;110292;1262;19059;-37
2023/08/29 05:27:57;;;;;;;;;1216.00;1113.00;;;;;24.61;48.95;99955.15;110274;1262;22598;-38
2023/08/29 05:30:25;;;;;;;;;1623.33;1515.67;;;;;24.69;48.59;99924.77;110289;1262;19456;-37
2023/08/29 05:32:52;;;;;;;;;305.50;219.50;;;;;24.69;48.86;99876.83;110262;1255;20731;-38
2023/08/29 05:35:20;;;;;;;;;248.50;185.50;;;;;24.69;48.78;99867.86;110277;1248;22836;-36
2023/08/29 05:37:47;;;;;;;;;248.00;184.00;;;;;24.70;48.95;99891.96;110290;1262;19049;-36
2023/08/29 05:40:14;;;;;;;;;166.50;121.00;;;;;24.70;48.92;99879.44;110284;1262;20312;-36
2023/08/29 05:42:42;;;;;;;;;130.00;99.00;;;;;24.73;48.40;99864.23;110297;1256;20905;-35
2023/08/29 05:45:09;;;;;;;;;128.00;93.50;;;;;24.71;48.46;99864.46;110272;1262;19099;-35
2023/08/29 05:47:37;;;;;;;;;99.00;71.00;;;;;24.69;48.44;99875.47;110269;1262;22143;-35
2023/08/29 05:50:04;;;;;;;;;86.00;59.00;;;;;24.68;48.40;99893.67;110292;1262;19329;-35
2023/08/29 05:52:31;;;;;;;;;51.00;41.00;;;;;24.46;48.50;99885.20;110269;1248;19935;-37
2023/08/29 05:54:59;;;;;;;;;34.00;27.00;;;;;24.33;48.83;99841.43;110211;1262;20354;-38
2023/08/29 05:57:26;;;;;;;;;25.00;22.00;;;;;24.20;49.24;99858.19;110178;1262;23231;-37
2023/08/29 05:59:54;;;;;;;;;19.00;16.00;;;;;24.12;49.47;99882.86;110291;1262;22756;-38
2023/08/29 06:02:22;;;;;;;;;18.00;15.00;;;;;24.07;49.70;99889.17;110205;1262;18666;-38
2023/08/29 06:04:50;;;;;;;;;16.50;14.00;;;;;24.05;49.80;99881.66;110203;1262;20744;-37
2023/08/29 06:07:17;;;;;;;;;12.00;10.00;;;;;24.01;49.74;99866.93;110233;1255;18976;-37
2023/08/29 06:09:44;;;;;;;;;10.00;10.00;;;;;23.90;50.07;99880.02;110218;1262;18930;-38
2023/08/29 06:12:12;;;;;;;;;7.67;7.00;;;;;23.92;50.06;99889.05;110208;1262;21031;-38
2023/08/29 06:14:39;;;;;;;;;10.00;9.00;;;;;24.00;49.99;99877.96;110221;1262;19194;-38
2023/08/29 06:17:07;;;;;;;;;9.00;9.00;;;;;23.97;50.10;99882.80;110208;1262;18920;-38
2023/08/29 06:19:34;;;;;;;;;10.00;10.00;;;;;23.88;50.33;99880.20;110203;1255;19240;-38
2023/08/29 06:22:01;;;;;;;;;7.00;7.00;;;;;23.84;50.52;99878.22;110215;1262;19669;-38
2023/08/29 06:24:29;;;;;;;;;9.00;9.00;;;;;23.87;50.52;99885.36;110217;1262;18730;-38
2023/08/29 06:26:56;;;;;;;;;11.00;10.50;;;;;23.85;50.52;99895.89;110210;1262;21130;-37
2023/08/29 06:29:24;;;;;;;;;11.00;10.00;;;;;23.86;50.34;99890.13;110232;1262;18757;-38
2023/08/29 06:31:51;;;;;;;;;7.00;7.00;;;;;23.86;50.40;99883.02;110289;1262;18935;-36
2023/08/29 06:34:18;;;;;;;;;7.00;7.00;;;;;23.86;50.60;99883.25;110222;1262;20805;-37
2023/08/29 06:36:46;;;;;;;;;10.00;10.00;;;;;23.76;51.08;99889.01;110196;1262;18767;-37
2023/08/29 06:39:13;;;;;;;;;7.00;7.00;;;;;23.77;51.10;99882.86;110210;1262;18655;-37
2023/08/29 06:41:40;;;;;;;;;7.00;7.00;;;;;23.75;51.14;99870.23;110235;1262;20686;-37
2023/08/29 06:44:08;;;;;;;;;9.00;7.00;;;;;23.74;51.34;99857.89;110208;1262;22673;-36
2023/08/29 06:46:35;;;;;;;;;7.00;7.00;;;;;23.74;51.27;99848.98;110213;1262;18757;-38
2023/08/29 06:49:04;;;;;;;;;9.00;9.00;;;;;23.77;51.36;99855.63;110176;1262;20845;-38
2023/08/29 06:51:32;;;;;;;;;9.00;7.50;;;;;23.70;51.63;99862.03;110198;1262;19615;-38
2023/08/29 06:53:59;;;;;;;;;7.00;7.00;;;;;23.79;51.24;99861.55;110242;1248;20492;-38
2023/08/29 06:56:27;;;;;;;;;9.00;9.00;;;;;23.79;51.29;99861.10;110277;1262;20957;-37
2023/08/29 06:58:54;;;;;;;;;10.00;10.00;;;;;23.78;51.38;99854.50;110301;1246;18360;-37
2023/08/29 07:01:21;;;;;;;;;9.00;8.50;;;;;23.75;51.58;99838.33;110194;1262;20055;-38
2023/08/29 07:03:49;;;;;;;;;9.50;9.50;;;;;23.75;51.56;99840.74;110260;1262;19730;-38
2023/08/29 07:06:16;;;;;;;;;9.00;7.00;;;;;23.75;51.69;99856.83;110254;1255;19866;-38
2023/08/29 07:08:43;;;;;;;;;9.00;9.00;;;;;23.70;51.91;99860.46;110274;1262;18809;-37
2023/08/29 07:11:11;;;;;;;;;9.50;9.00;;;;;23.71;51.82;99860.12;110222;1262;22142;-38
2023/08/29 07:13:38;;;;;;;;;7.00;7.00;;;;;23.72;51.70;99851.60;110208;1262;22252;-38
2023/08/29 07:16:06;;;;;;;;;9.00;9.00;;;;;23.72;51.50;99842.08;110239;1262;19028;-38
2023/08/29 07:18:33;;;;;;;;;10.00;10.00;;;;;23.72;51.71;99843.45;110264;1262;20661;-38
2023/08/29 07:21:01;;;;;;;;;9.00;9.00;;;;;23.71;51.61;99845.67;110232;1262;19731;-38
2023/08/29 07:23:29;;;;;;;;;9.00;9.00;;;;;23.63;51.96;99845.09;110220;1262;19941;-38
2023/08/29 07:25:56;;;;;;;;;9.00;9.00;;;;;23.63;51.94;99850.30;110233;1262;19319;-38
2023/08/29 07:28:24;;;;;;;;;8.33;7.00;;;;;23.52;52.42;99851.52;110233;1262;18806;-38
2023/08/29 07:30:51;;;;;;;;;9.00;9.00;;;;;23.53;52.63;99851.17;110304;1256;21578;-39
2023/08/29 07:33:19;;;;;;;;;11.00;10.00;;;;;23.57;52.45;99846.66;110340;1262;20896;-38
2023/08/29 07:35:46;;;;;;;;;13.00;12.00;;;;;23.34;53.22;99836.74;110303;1262;20039;-38
2023/08/29 07:38:14;;;;;;;;;13.00;12.50;;;;;22.98;54.29;99837.55;110251;1248;21453;-37
2023/08/29 07:40:41;;;;;;;;;13.00;12.00;;;;;22.67;55.32;99843.71;110304;1250;19489;-37
2023/08/29 07:43:09;;;;;;;;;12.50;10.00;;;;;22.54;56.07;99852.77;110274;1262;19995;-37
2023/08/29 07:45:36;;;;;;;;;13.50;12.50;;;;;22.30;57.02;99865.84;110306;1247;20136;-38
2023/08/29 07:48:04;;;;;;;;;12.00;12.00;;;;;22.17;57.26;99864.89;110314;1262;20653;-38
2023/08/29 07:50:31;;;;;;;;;16.00;13.00;;;;;22.41;56.81;99855.09;110282;1255;19918;-37
2023/08/29 07:52:58;;;;;;;;;13.00;13.00;;;;;22.28;57.06;99849.13;110297;1262;18691;-37
2023/08/29 07:55:26;;;;;;;;;15.00;13.00;;;;;22.37;56.96;99851.64;110315;1248;20707;-37
2023/08/29 07:57:53;;;;;;;;;12.50;12.00;;;;;22.13;57.72;99868.34;110264;1262;19145;-37
2023/08/29 08:00:21;;;;;;;;;16.00;13.00;;;;;22.26;57.52;99871.17;110267;1262;21344;-37
2023/08/29 08:02:48;;;;;;;;;11.00;11.00;;;;;22.27;57.47;99874.91;110299;1262;19369;-38
2023/08/29 08:05:16;;;;;;;;;11.50;11.00;;;;;22.33;57.53;99883.36;110314;1247;20148;-38
2023/08/29 08:07:43;;;;;;;;;12.00;11.50;;;;;22.42;56.95;99894.11;110283;1248;20215;-38
2023/08/29 08:10:11;;;;;;;;;15.50;12.50;;;;;22.32;57.63;99904.66;110316;1262;20877;-38
2023/08/29 08:12:38;;;;;;;;;12.00;12.00;;;;;22.15;58.46;99892.58;110218;1262;20237;-38
2023/08/29 08:15:06;;;;;;;;;16.00;13.00;;;;;22.26;58.00;99882.83;110298;1262;18936;-37
2023/08/29 08:17:33;;;;;;;;;15.00;12.50;;;;;22.42;57.70;99883.64;110298;1262;20878;-38
2023/08/29 08:20:05;;;;;;;;;12.50;12.00;;;;;22.05;58.94;99891.27;110301;1262;19956;-37
2023/08/29 08:22:32;;;;;;;;;11.50;11.50;;;;;21.99;59.27;99890.94;110228;1255;18946;-39
2023/08/29 08:24:59;;;;;;;;;12.00;11.00;;;;;22.22;58.43;99889.06;110330;1262;21692;-38
2023/08/29 08:27:27;;;;;;;;;12.00;12.00;;;;;22.26;58.60;99890.59;110334;1262;18662;-39
2023/08/29 08:29:54;;;;;;;;;9.00;8.33;;;;;22.21;58.47;99888.00;110287;1262;21042;-39
2023/08/29 08:32:22;;;;;;;;;14.33;13.00;;;;;22.18;59.06;99889.75;110297;1246;21038;-38
2023/08/29 08:34:49;;;;;;;;;11.00;11.00;;;;;22.14;59.48;99889.50;110324;1256;23482;-38
2023/08/29 08:37:17;;;;;;;;;11.00;10.33;;;;;22.17;59.20;99885.12;110318;1262;18805;-39
2023/08/29 08:39:44;;;;;;;;;15.00;13.00;;;;;22.12;59.34;99882.29;110303;1248;22212;-37
2023/08/29 08:42:12;;;;;;;;;12.00;12.00;;;;;21.98;60.34;99879.11;110292;1247;22848;-37
2023/08/29 08:44:39;;;;;;;;;14.00;13.00;;;;;22.11;59.64;99885.28;110291;1262;21684;-38
2023/08/29 08:47:07;;;;;;;;;12.00;12.00;;;;;22.17;59.26;99885.12;110306;1262;20967;-38
2023/08/29 08:49:34;;;;;;;;;12.67;12.00;;;;;22.25;59.52;99892.25;110279;1262;19404;-37
2023/08/29 08:52:01;;;;;;;;;13.00;12.50;;;;;22.15;59.67;99889.32;110185;1262;20077;-39
2023/08/29 08:54:29;;;;;;;;;13.00;12.00;;;;;22.06;60.14;99890.89;110284;1262;22097;-38
2023/08/29 08:56:57;;;;;;;;;12.00;12.00;;;;;22.12;59.53;99888.27;110307;1262;19111;-38
2023/08/29 08:59:25;;;;;;;;;13.00;13.00;;;;;22.10;60.01;99896.94;110332;1247;18870;-38
2023/08/29 09:01:52;;;;;;;;;15.00;13.50;;;;;22.20;59.57;99892.55;110286;1247;21153;-38
2023/08/29 09:04:20;;;;;;;;;14.00;11.00;;;;;22.12;59.88;99885.80;110250;1262;18614;-37
2023/08/29 09:06:47;;;;;;;;;14.50;11.00;;;;;22.22;59.58;99898.95;110214;1256;18805;-37
2023/08/29 09:09:14;;;;;;;;;12.00;12.00;;;;;22.45;58.87;99907.86;110202;1262;20701;-37
2023/08/29 09:11:42;;;;;;;;;13.00;12.00;;;;;22.39;59.19;99910.20;110201;1262;19998;-38
2023/08/29 09:14:09;;;;;;;;;12.00;12.00;;;;;22.44;58.85;99908.25;110220;1262;19993;-37
2023/08/29 09:16:37;;;;;;;;;11.00;9.00;;;;;22.47;58.91;99899.63;110111;1262;20823;-37
2023/08/29 09:19:06;;;;;;;;;12.00;12.00;;;;;22.57;58.43;99892.08;110290;1262;18938;-38
2023/08/29 09:21:33;;;;;;;;;12.00;12.00;;;;;22.61;58.24;99893.19;110262;1262;20321;-37
2023/08/29 09:24:01;;;;;;;;;12.00;12.00;;;;;22.64;58.13;99897.13;110119;1262;22234;-37
2023/08/29 09:26:28;;;;;;;;;13.00;12.00;;;;;22.55;58.23;99901.61;110224;1248;20165;-37
2023/08/29 09:28:56;;;;;;;;;15.00;14.50;;;;;22.24;59.58;99903.98;110297;1262;22177;-38
2023/08/29 09:31:23;;;;;;;;;15.50;15.00;;;;;22.24;59.65;99910.48;110295;1262;22334;-37
2023/08/29 09:33:50;;;;;;;;;10.00;10.00;;;;;22.28;59.40;99910.04;110299;1262;20112;-41
2023/08/29 09:36:18;;;;;;;;;12.00;12.00;;;;;22.55;58.69;99902.52;110300;1262;18931;-37
2023/08/29 09:38:45;;;;;;;;;12.00;10.33;;;;;22.67;58.39;99897.01;110274;1262;19560;-38
2023/08/29 09:41:13;;;;;;;;;9.00;9.00;;;;;22.76;58.08;99904.70;110277;1262;19633;-38
2023/08/29 09:43:40;;;;;;;;;12.00;12.00;;;;;22.84;57.78;99908.86;110265;1262;20463;-39
2023/08/29 09:46:07;;;;;;;;;9.50;9.00;;;;;22.89;57.60;99908.38;110192;1262;19319;-39
2023/08/29 09:48:35;;;;;;;;;15.00;13.00;;;;;22.96;57.18;99907.16;110212;1262;18839;-39
2023/08/29 09:51:03;;;;;;;;;17.00;15.50;;;;;22.95;57.22;99910.55;110186;1255;22807;-38
2023/08/29 09:53:31;;;;;;;;;12.50;11.50;;;;;22.98;57.20;99909.02;110272;1262;19522;-38
2023/08/29 09:55:58;;;;;;;;;14.50;14.50;;;;;23.02;56.87;99907.84;110256;1262;18629;-38
2023/08/29 09:58:26;;;;;;;;;14.00;14.00;;;;;23.11;56.72;99908.41;110260;1262;21210;-38
2023/08/29 10:00:53;;;;;;;;;13.67;13.00;;;;;23.15;56.83;99913.57;110194;1262;20892;-38
2023/08/29 10:03:21;;;;;;;;;17.00;14.00;;;;;23.24;56.58;99921.85;110175;1262;18544;-38
2023/08/29 10:05:48;;;;;;;;;14.00;13.00;;;;;23.18;56.86;99925.10;110186;1262;20387;-38
2023/08/29 10:08:16;;;;;;;;;39.00;35.00;;;;;23.15;56.94;99926.46;110242;1262;19831;-38
2023/08/29 10:10:43;;;;;;;;;89.00;68.00;;;;;23.21;56.61;99930.11;110265;1262;19933;-36
2023/08/29 10:13:11;;;;;;;;;75.50;56.00;;;;;23.29;56.74;99934.46;110251;1262;20132;-38
2023/08/29 10:15:38;;;;;;;;;119.00;91.00;;;;;23.26;56.77;99929.55;110266;1262;22662;-37
2023/08/29 10:18:05;;;;;;;;;81.50;61.50;;;;;23.26;56.70;99926.83;110281;1248;19944;-37
2023/08/29 10:20:33;;;;;;;;;103.00;74.00;;;;;23.24;57.14;99924.04;110250;1262;22147;-37
2023/08/29 10:23:00;;;;;;;;;64.50;49.00;;;;;23.30;56.92;99922.87;110265;1262;19352;-37
2023/08/29 10:25:28;;;;;;;;;56.00;46.00;;;;;23.30;56.87;99922.27;110281;1262;20403;-37
2023/08/29 10:27:55;;;;;;;;;49.00;42.00;;;;;23.24;56.98;99919.44;110264;1256;18826;-36
2023/08/29 10:30:22;;;;;;;;;35.00;33.00;;;;;23.24;57.02;99917.90;110257;1262;19760;-37
2023/08/29 10:32:50;;;;;;;;;32.00;26.00;;;;;23.31;56.92;99909.50;110282;1262;18940;-37
2023/08/29 10:35:17;;;;;;;;;28.50;22.50;;;;;23.35;56.67;99905.65;110285;1247;20213;-36
2023/08/29 10:37:45;;;;;;;;;22.00;20.00;;;;;23.34;56.74;99906.65;110270;1262;22398;-36
2023/08/29 10:40:12;;;;;;;;;21.00;18.50;;;;;23.33;56.94;99901.04;110229;1262;18531;-37
2023/08/29 10:42:39;;;;;;;;;18.00;17.00;;;;;23.34;57.18;99895.77;110173;1262;19975;-38
2023/08/29 10:45:07;;;;;;;;;18.00;17.00;;;;;23.41;57.07;99893.75;110214;1262;20675;-38
2023/08/29 10:47:36;;;;;;;;;17.00;16.00;;;;;23.41;57.02;99893.75;110154;1262;18523;-39
2023/08/29 10:50:05;;;;;;;;;17.00;14.00;;;;;23.41;57.19;99889.22;110257;1262;19088;-38
2023/08/29 10:52:32;;;;;;;;;15.00;13.50;;;;;23.41;57.19;99886.38;110263;1248;20122;-38
2023/08/29 10:55:00;;;;;;;;;15.00;13.00;;;;;23.43;57.25;99883.31;110256;1262;20275;-37
2023/08/29 10:57:28;;;;;;;;;16.00;15.00;;;;;23.45;57.30;99885.14;110271;1262;20067;-37
2023/08/29 10:59:56;;;;;;;;;17.50;14.50;;;;;23.48;57.24;99877.95;110300;1262;20657;-37
2023/08/29 11:02:25;;;;;;;;;14.00;14.00;;;;;23.50;57.31;99871.51;110269;1262;19933;-37
2023/08/29 11:04:53;;;;;;;;;12.50;12.50;;;;;23.49;57.55;99872.30;110255;1262;20304;-37
2023/08/29 11:07:20;;;;;;;;;13.00;11.00;;;;;23.50;57.83;99870.31;110288;1247;19308;-37
2023/08/29 11:09:48;;;;;;;;;13.00;13.00;;;;;23.46;57.92;99869.41;110264;1262;20090;-37
2023/08/29 11:12:17;;;;;;;;;13.00;12.00;;;;;23.44;57.82;99871.60;110201;1262;18754;-37
2023/08/29 11:14:44;;;;;;;;;15.67;14.33;;;;;23.47;57.94;99869.55;110257;1262;20568;-36